createdAt,value
2022-12-25T00:02:01.941Z,3.65
2022-12-25T00:04:28.840Z,4.15
2022-12-25T00:06:56.022Z,4.10
2022-12-25T00:09:22.718Z,4.10
2022-12-25T00:11:49.340Z,3.63
2022-12-25T00:14:16.155Z,4.05
2022-12-25T00:16:42.815Z,3.92
2022-12-25T00:19:09.517Z,4.15
2022-12-25T00:21:36.811Z,3.60
2022-12-25T00:24:03.690Z,3.83
2022-12-25T00:26:30.352Z,4.20
2022-12-25T00:31:25.721Z,3.33
2022-12-25T00:33:52.967Z,3.65
2022-12-25T00:36:22.334Z,3.97
2022-12-25T00:38:49.281Z,4.68
2022-12-25T00:41:38.758Z,3.88
2022-12-25T00:44:06.461Z,4.30
2022-12-25T00:46:33.222Z,4.50
2022-12-25T00:49:00.580Z,4.00
2022-12-25T00:51:27.247Z,3.25
2022-12-25T00:56:20.561Z,3.97
2022-12-25T01:01:14.623Z,3.55
2022-12-25T01:03:42.123Z,4.05
2022-12-25T01:06:10.923Z,4.57
2022-12-25T01:08:59.725Z,4.78
2022-12-25T01:11:26.654Z,5.07
2022-12-25T01:13:53.316Z,5.15
2022-12-25T01:18:46.721Z,3.33
2022-12-25T01:21:18.383Z,4.40
2022-12-25T01:23:45.095Z,4.68
2022-12-25T01:28:39.778Z,3.70
2022-12-25T01:31:10.647Z,3.50
2022-12-25T01:33:38.474Z,4.25
2022-12-25T01:36:15.901Z,3.45
2022-12-25T01:38:43.742Z,3.85
2022-12-25T01:41:11.859Z,3.53
2022-12-25T01:43:56.240Z,4.18
2022-12-25T01:46:22.889Z,4.72
2022-12-25T01:51:29.125Z,3.80
2022-12-25T01:53:59.556Z,3.60
2022-12-25T01:56:29.029Z,4.93
2022-12-25T01:58:57.665Z,3.88
2022-12-25T02:01:24.392Z,3.42
2022-12-25T02:03:57.055Z,4.40
2022-12-25T02:08:51.645Z,2.75
2022-12-25T02:11:37.317Z,2.83
2022-12-25T02:14:03.979Z,3.08
2022-12-25T02:16:35.556Z,4.20
2022-12-25T02:19:25.195Z,3.90
2022-12-25T02:22:06.908Z,4.15
2022-12-25T02:24:50.635Z,3.83
2022-12-25T02:27:27.705Z,3.83
2022-12-25T02:30:03.794Z,4.22
2022-12-25T02:32:52.364Z,3.95
2022-12-25T02:35:28.390Z,3.92
2022-12-25T02:38:16.692Z,3.80
2022-12-25T02:40:51.347Z,3.40
2022-12-25T02:43:46.565Z,4.13
2022-12-25T02:46:35.248Z,5.22
2022-12-25T02:49:41.583Z,5.10
2022-12-25T02:52:41.202Z,4.22
2022-12-25T02:55:35.983Z,3.63
2022-12-25T02:58:27.276Z,4.68
2022-12-25T03:01:18.398Z,4.50
2022-12-25T03:04:05.487Z,4.25
2022-12-25T03:06:46.739Z,4.10
2022-12-25T03:09:42.758Z,4.03
2022-12-25T03:12:15.716Z,4.28
2022-12-25T03:15:01.315Z,4.00
2022-12-25T03:17:28.102Z,4.13
2022-12-25T03:20:13.249Z,3.45
2022-12-25T03:23:02.735Z,4.43
2022-12-25T03:25:48.103Z,3.75
2022-12-25T03:28:15.024Z,3.65
2022-12-25T03:31:06.826Z,3.35
2022-12-25T03:34:10.701Z,3.95
2022-12-25T03:36:40.977Z,3.50
2022-12-25T03:39:42.120Z,3.00
2022-12-25T03:42:37.477Z,3.13
2022-12-25T03:45:41.278Z,4.22
2022-12-25T03:48:28.764Z,3.38
2022-12-25T03:51:22.436Z,2.97
2022-12-25T03:54:13.594Z,3.33
2022-12-25T03:57:00.362Z,3.67
2022-12-25T03:59:45.737Z,2.67
2022-12-25T04:02:31.250Z,3.35
2022-12-25T04:05:16.416Z,4.00
2022-12-25T04:08:02.272Z,3.65
2022-12-25T04:10:47.683Z,3.55
2022-12-25T04:13:34.564Z,3.53
2022-12-25T04:16:20.145Z,3.55
2022-12-25T04:19:05.524Z,3.30
2022-12-25T04:21:50.895Z,3.90
2022-12-25T04:24:36.476Z,3.70
2022-12-25T04:27:21.561Z,2.58
2022-12-25T04:30:06.905Z,2.80
2022-12-25T04:32:52.175Z,3.30
2022-12-25T04:35:37.611Z,2.42
2022-12-25T04:38:04.236Z,4.57
2022-12-25T04:42:57.430Z,3.35
2022-12-25T04:47:50.773Z,4.15
2022-12-25T04:52:43.953Z,3.28
2022-12-25T04:57:38.382Z,3.40
2022-12-25T05:00:07.402Z,3.55
2022-12-25T05:02:34.675Z,4.88
2022-12-25T05:05:01.510Z,3.67
2022-12-25T05:07:28.242Z,3.83
2022-12-25T05:09:54.928Z,3.85
2022-12-25T05:14:48.163Z,3.83
2022-12-25T05:19:41.340Z,4.05
2022-12-25T05:24:34.586Z,3.47
2022-12-25T05:27:01.214Z,3.58
2022-12-25T05:29:28.022Z,2.85
2022-12-25T05:31:54.717Z,3.85
2022-12-25T05:34:21.469Z,3.15
2022-12-25T05:36:48.076Z,3.75
2022-12-25T05:39:14.827Z,4.05
2022-12-25T05:44:07.976Z,3.38
2022-12-25T05:46:34.830Z,3.75
2022-12-25T05:49:01.460Z,3.58
2022-12-25T05:53:54.698Z,3.92
2022-12-25T05:58:48.330Z,3.45
2022-12-25T06:01:19.291Z,3.72
2022-12-25T06:03:46.624Z,3.22
2022-12-25T06:06:13.962Z,3.83
2022-12-25T06:08:41.342Z,4.40
2022-12-25T06:11:14.575Z,4.50
2022-12-25T06:13:41.757Z,4.20
2022-12-25T06:16:11.512Z,4.15
2022-12-25T06:18:41.693Z,4.88
2022-12-25T06:21:10.143Z,4.13
2022-12-25T06:23:38.391Z,3.95
2022-12-25T06:26:10.415Z,3.70
2022-12-25T06:28:37.377Z,4.63
2022-12-25T06:31:09.441Z,4.28
2022-12-25T06:33:36.895Z,3.88
2022-12-25T06:36:11.935Z,3.95
2022-12-25T06:38:38.923Z,3.95
2022-12-25T06:41:11.566Z,3.67
2022-12-25T06:46:10.694Z,3.60
2022-12-25T06:48:39.148Z,2.92
2022-12-25T06:51:06.803Z,3.58
2022-12-25T06:53:40.384Z,4.00
2022-12-25T06:56:10.600Z,3.17
2022-12-25T06:58:37.257Z,4.00
2022-12-25T07:01:15.329Z,4.65
2022-12-25T07:03:44.252Z,4.63
2022-12-25T07:06:11.455Z,4.07
2022-12-25T07:08:38.289Z,4.03
2022-12-25T07:11:05.502Z,3.95
2022-12-25T07:13:32.519Z,3.67
2022-12-25T07:16:01.369Z,3.75
2022-12-25T07:18:29.767Z,4.25
2022-12-25T07:20:56.462Z,3.20
2022-12-25T07:23:23.611Z,3.63
2022-12-25T07:25:54.742Z,3.67
2022-12-25T07:28:21.625Z,4.28
2022-12-25T07:30:48.384Z,3.60
2022-12-25T07:33:15.629Z,3.60
2022-12-25T07:35:42.494Z,2.78
2022-12-25T07:38:09.849Z,3.40
2022-12-25T07:40:36.580Z,3.50
2022-12-25T07:43:03.345Z,3.60
2022-12-25T07:45:30.183Z,4.53
2022-12-25T07:48:05.855Z,4.95
2022-12-25T07:50:34.660Z,3.67
2022-12-25T07:53:01.491Z,3.90
2022-12-25T07:55:28.307Z,3.00
2022-12-25T07:57:55.284Z,3.30
2022-12-25T08:00:22.265Z,4.28
2022-12-25T08:02:50.203Z,2.92
2022-12-25T08:05:17.206Z,4.10
2022-12-25T08:07:43.861Z,3.85
2022-12-25T08:10:10.954Z,4.00
2022-12-25T08:12:37.739Z,3.47
2022-12-25T08:15:04.817Z,4.07
2022-12-25T08:17:31.439Z,4.03
2022-12-25T08:22:25.117Z,3.60
2022-12-25T08:24:51.751Z,3.67
2022-12-25T08:29:45.105Z,3.58
2022-12-25T08:32:11.789Z,3.60
2022-12-25T08:34:38.962Z,2.78
2022-12-25T08:37:05.974Z,3.17
2022-12-25T08:39:32.654Z,3.80
2022-12-25T08:41:59.303Z,3.13
2022-12-25T08:46:53.286Z,2.90
2022-12-25T08:49:19.969Z,3.10
2022-12-25T08:51:46.939Z,3.70
2022-12-25T08:54:13.673Z,3.53
2022-12-25T08:59:06.940Z,3.92
2022-12-25T09:01:33.828Z,3.53
2022-12-25T09:04:00.566Z,4.63
2022-12-25T09:08:53.844Z,4.63
2022-12-25T09:11:21.176Z,3.97
2022-12-25T09:13:48.633Z,4.13
2022-12-25T09:16:18.432Z,5.07
2022-12-25T09:18:45.117Z,4.32
2022-12-25T09:21:14.985Z,4.50
2022-12-25T09:23:42.651Z,3.63
2022-12-25T09:26:13.512Z,2.72
2022-12-25T09:28:43.719Z,5.05
2022-12-25T09:31:13.504Z,4.43
2022-12-25T09:33:40.480Z,3.90
2022-12-25T09:36:08.619Z,4.30
2022-12-25T09:38:36.059Z,4.47
2022-12-25T09:41:50.521Z,4.10
2022-12-25T09:44:23.127Z,3.40
2022-12-25T09:46:56.050Z,4.00
2022-12-25T09:49:35.675Z,3.35
2022-12-25T09:52:19.845Z,4.25
2022-12-25T09:55:20.584Z,3.33
2022-12-25T09:57:54.514Z,3.80
2022-12-25T10:00:23.618Z,3.33
2022-12-25T10:03:12.421Z,2.95
2022-12-25T10:05:57.579Z,3.40
2022-12-25T10:08:52.469Z,3.33
2022-12-25T10:11:40.430Z,2.45
2022-12-25T10:14:07.675Z,3.00
2022-12-25T10:17:12.083Z,3.00
2022-12-25T10:19:58.115Z,2.92
2022-12-25T10:22:47.702Z,3.53
2022-12-25T10:25:21.135Z,3.88
2022-12-25T10:28:03.899Z,3.13
2022-12-25T10:30:31.708Z,3.90
2022-12-25T10:32:58.744Z,3.88
2022-12-25T10:35:29.572Z,3.65
2022-12-25T10:38:11.798Z,3.65
2022-12-25T10:40:53.302Z,3.53
2022-12-25T10:43:28.130Z,4.88
2022-12-25T10:45:54.957Z,3.95
2022-12-25T10:48:33.096Z,3.50
2022-12-25T10:51:00.126Z,4.22
2022-12-25T10:53:29.368Z,4.00
2022-12-25T10:55:58.993Z,4.88
2022-12-25T10:58:26.274Z,4.75
2022-12-25T11:00:57.336Z,3.30
2022-12-25T11:03:29.011Z,4.68
2022-12-25T11:05:56.034Z,3.63
2022-12-25T11:08:25.559Z,3.42
2022-12-25T11:11:07.801Z,3.13
2022-12-25T11:13:47.424Z,3.05
2022-12-25T11:16:25.820Z,3.35
2022-12-25T11:21:33.671Z,3.47
2022-12-25T11:24:00.360Z,3.38
2022-12-25T11:26:29.676Z,3.25
2022-12-25T11:28:56.940Z,3.60
2022-12-25T11:31:39.323Z,3.67
2022-12-25T11:34:14.748Z,4.13
2022-12-25T11:36:50.024Z,3.53
2022-12-25T11:39:23.933Z,4.72
2022-12-25T11:42:13.495Z,4.38
2022-12-25T11:44:51.448Z,4.00
2022-12-25T11:47:35.047Z,3.97
2022-12-25T11:50:07.418Z,3.70
2022-12-25T11:52:38.855Z,4.53
2022-12-25T11:55:16.910Z,4.05
2022-12-25T11:57:47.955Z,3.20
2022-12-25T12:00:16.310Z,3.78
2022-12-25T12:02:53.819Z,3.22
2022-12-25T12:05:29.582Z,3.90
2022-12-25T12:08:02.467Z,3.90
2022-12-25T12:10:34.785Z,4.00
2022-12-25T12:15:50.458Z,2.80
2022-12-25T12:18:29.771Z,3.13
2022-12-25T12:21:05.197Z,3.38
2022-12-25T12:23:36.040Z,3.00
2022-12-25T12:26:04.480Z,3.53
2022-12-25T12:28:44.722Z,3.30
2022-12-25T12:31:12.161Z,3.60
2022-12-25T12:33:44.118Z,2.78
2022-12-25T12:36:14.630Z,2.90
2022-12-25T12:38:43.664Z,3.33
2022-12-25T12:41:12.556Z,2.70
2022-12-25T12:43:42.524Z,2.80
2022-12-25T12:46:31.061Z,3.22
2022-12-25T12:49:20.129Z,2.95
2022-12-25T12:51:46.922Z,3.80
2022-12-25T12:54:24.933Z,3.30
2022-12-25T12:57:04.403Z,3.00
2022-12-25T12:59:44.521Z,2.80
2022-12-25T13:02:36.331Z,3.70
2022-12-25T13:05:14.330Z,3.08
2022-12-25T13:07:59.331Z,3.10
2022-12-25T13:10:34.998Z,2.30
2022-12-25T13:13:06.908Z,2.72
2022-12-25T13:15:35.282Z,2.08
2022-12-25T13:18:06.718Z,2.33
2022-12-25T13:20:46.910Z,2.83
2022-12-25T13:23:23.673Z,2.35
2022-12-25T13:25:55.490Z,1.80
2022-12-25T13:28:30.211Z,1.48
2022-12-25T13:31:05.672Z,1.90
2022-12-25T13:33:33.495Z,1.52
2022-12-25T13:36:00.317Z,1.70
2022-12-25T13:38:28.976Z,1.60
2022-12-25T13:41:15.657Z,1.50
2022-12-25T13:43:44.516Z,1.05
2022-12-25T13:46:14.391Z,1.30
2022-12-25T13:48:42.060Z,1.38
2022-12-25T13:51:16.899Z,1.80
2022-12-25T13:53:44.151Z,1.70
2022-12-25T13:56:16.211Z,1.65
2022-12-25T13:58:44.747Z,2.17
2022-12-25T14:01:16.255Z,1.73
2022-12-25T14:03:46.233Z,1.92
2022-12-25T14:06:20.979Z,2.05
2022-12-25T14:08:48.587Z,2.03
2022-12-25T14:11:18.053Z,2.35
2022-12-25T14:13:47.852Z,2.15
2022-12-25T14:16:18.709Z,2.25
2022-12-25T14:19:00.673Z,2.05
2022-12-25T14:21:32.791Z,2.47
2022-12-25T14:24:00.113Z,1.92
2022-12-25T14:26:32.071Z,2.42
2022-12-25T14:29:04.949Z,2.33
2022-12-25T14:31:32.859Z,2.80
2022-12-25T14:34:03.044Z,2.83
2022-12-25T14:36:31.606Z,2.40
2022-12-25T14:39:00.655Z,2.80
2022-12-25T14:41:39.492Z,2.28
2022-12-25T14:47:23.782Z,2.22
2022-12-25T14:49:51.056Z,2.42
2022-12-25T14:52:31.662Z,2.75
2022-12-25T14:55:04.894Z,2.83
2022-12-25T14:57:38.516Z,3.03
2022-12-25T15:00:18.635Z,2.60
2022-12-25T15:02:47.327Z,2.65
2022-12-25T15:05:28.423Z,2.20
2022-12-25T15:08:13.222Z,2.30
2022-12-25T15:13:28.592Z,2.80
2022-12-25T15:16:12.243Z,2.30
2022-12-25T15:18:42.029Z,2.35
2022-12-25T15:21:30.356Z,2.83
2022-12-25T15:23:59.113Z,2.97
2022-12-25T15:26:27.297Z,3.53
2022-12-25T15:28:53.996Z,3.28
2022-12-25T15:31:31.901Z,3.50
2022-12-25T15:34:01.781Z,3.40
2022-12-25T15:36:29.037Z,3.65
2022-12-25T15:38:56.449Z,3.78
2022-12-25T15:42:03.851Z,2.95
2022-12-25T15:44:30.603Z,2.88
2022-12-25T15:46:58.408Z,2.58
2022-12-25T15:49:25.113Z,2.22
2022-12-25T15:51:51.754Z,2.58
2022-12-25T15:54:18.699Z,2.78
2022-12-25T15:56:58.401Z,3.25
2022-12-25T15:59:25.053Z,4.82
2022-12-25T16:01:54.597Z,8.75
2022-12-25T16:04:22.203Z,13.02
2022-12-25T16:06:49.272Z,14.40
2022-12-25T16:09:16.862Z,16.30
2022-12-25T16:11:43.770Z,15.98
2022-12-25T16:14:10.630Z,16.23
2022-12-25T16:16:37.833Z,10.65
2022-12-25T16:19:05.440Z,9.90
2022-12-25T16:21:39.294Z,13.00
2022-12-25T16:24:06.331Z,4.85
2022-12-25T16:26:33.526Z,4.55
2022-12-25T16:29:06.807Z,4.22
2022-12-25T16:31:34.209Z,3.83
2022-12-25T16:34:01.545Z,3.30
2022-12-25T16:36:28.643Z,3.35
2022-12-25T16:38:55.388Z,3.28
2022-12-25T16:41:22.723Z,3.05
2022-12-25T16:43:49.666Z,3.83
2022-12-25T16:46:19.238Z,3.45
2022-12-25T16:48:46.142Z,3.85
2022-12-25T16:51:19.725Z,4.40
2022-12-25T16:53:47.258Z,4.30
2022-12-25T16:56:17.150Z,4.90
2022-12-25T16:58:48.501Z,4.53
2022-12-25T17:01:17.438Z,4.35
2022-12-25T17:03:44.759Z,5.32
2022-12-25T17:06:20.573Z,5.28
2022-12-25T17:08:47.622Z,5.75
2022-12-25T17:11:15.455Z,5.55
2022-12-25T17:13:47.460Z,4.90
2022-12-25T17:16:15.260Z,4.35
2022-12-25T17:18:41.992Z,6.10
2022-12-25T17:21:09.416Z,5.20
2022-12-25T17:23:39.223Z,4.82
2022-12-25T17:26:06.294Z,4.70
2022-12-25T17:28:34.659Z,4.85
2022-12-25T17:31:06.813Z,4.05
2022-12-25T17:33:36.403Z,4.10
2022-12-25T17:36:04.709Z,3.20
2022-12-25T17:38:32.671Z,2.88
2022-12-25T17:41:01.220Z,2.63
2022-12-25T17:43:28.825Z,3.28
2022-12-25T17:45:55.525Z,2.72
2022-12-25T17:48:22.149Z,3.38
2022-12-25T17:50:48.797Z,3.20
2022-12-25T17:53:15.521Z,2.83
2022-12-25T17:55:42.399Z,3.10
2022-12-25T17:58:09.256Z,2.88
2022-12-25T18:00:36.664Z,2.85
2022-12-25T18:03:10.804Z,3.95
2022-12-25T18:05:38.516Z,4.70
2022-12-25T18:08:05.417Z,3.35
2022-12-25T18:10:42.031Z,2.92
2022-12-25T18:13:10.778Z,3.08
2022-12-25T18:15:39.800Z,4.13
2022-12-25T18:18:08.370Z,4.45
2022-12-25T18:20:39.807Z,2.95
2022-12-25T18:23:08.048Z,3.90
2022-12-25T18:25:34.823Z,2.85
2022-12-25T18:28:02.793Z,3.55
2022-12-25T18:30:29.723Z,3.78
2022-12-25T18:35:23.427Z,3.22
2022-12-25T18:37:50.156Z,3.90
2022-12-25T18:40:17.133Z,3.03
2022-12-25T18:42:46.465Z,3.47
2022-12-25T18:45:14.763Z,2.78
2022-12-25T18:47:41.572Z,2.97
2022-12-25T18:50:09.772Z,3.03
2022-12-25T18:52:49.977Z,2.67
2022-12-25T18:55:17.565Z,2.50
2022-12-25T18:57:44.608Z,2.10
2022-12-25T19:00:11.702Z,3.17
2022-12-25T19:02:38.694Z,3.55
2022-12-25T19:05:06.026Z,3.25
2022-12-25T19:07:32.776Z,3.22
2022-12-25T19:09:59.664Z,3.35
2022-12-25T19:12:26.369Z,2.72
2022-12-25T19:14:53.025Z,2.92
2022-12-25T19:19:46.545Z,2.05
2022-12-25T19:22:13.589Z,2.80
2022-12-25T19:24:40.343Z,2.97
2022-12-25T19:27:07.299Z,2.35
2022-12-25T19:29:34.480Z,2.40
2022-12-25T19:32:01.564Z,2.97
2022-12-25T19:34:28.341Z,2.40
2022-12-25T19:39:24.790Z,2.45
2022-12-25T19:41:51.441Z,2.10
2022-12-25T19:44:19.992Z,3.15
2022-12-25T19:46:46.710Z,2.60
2022-12-25T19:49:14.053Z,1.95
2022-12-25T19:51:44.220Z,2.60
2022-12-25T19:54:15.938Z,2.90
2022-12-25T19:56:43.350Z,3.05
2022-12-25T19:59:11.885Z,3.60
2022-12-25T20:01:39.488Z,3.70
2022-12-25T20:04:08.785Z,3.05
2022-12-25T20:06:38.397Z,2.80
2022-12-25T20:09:14.977Z,3.13
2022-12-25T20:11:43.139Z,2.95
2022-12-25T20:14:13.554Z,2.88
2022-12-25T20:16:40.960Z,2.80
2022-12-25T20:19:08.188Z,4.00
2022-12-25T20:21:35.122Z,3.13
2022-12-25T20:24:01.989Z,3.13
2022-12-25T20:26:30.884Z,3.55
2022-12-25T20:28:58.592Z,3.20
2022-12-25T20:31:30.755Z,2.92
2022-12-25T20:33:59.671Z,3.28
2022-12-25T20:36:31.200Z,3.33
2022-12-25T20:39:03.655Z,2.85
2022-12-25T20:41:30.591Z,2.92
2022-12-25T20:43:58.064Z,3.35
2022-12-25T20:46:26.032Z,2.90
2022-12-25T20:48:53.733Z,3.40
2022-12-25T20:51:23.391Z,3.05
2022-12-25T20:53:51.254Z,2.90
2022-12-25T20:56:21.113Z,2.75
2022-12-25T20:58:52.133Z,3.10
2022-12-25T21:01:18.931Z,4.18
2022-12-25T21:03:45.942Z,3.15
2022-12-25T21:06:12.955Z,3.35
2022-12-25T21:08:41.491Z,3.40
2022-12-25T21:11:08.648Z,3.13
2022-12-25T21:13:41.773Z,3.05
2022-12-25T21:16:12.154Z,3.75
2022-12-25T21:18:39.301Z,3.40
2022-12-25T21:21:07.762Z,3.28
2022-12-25T21:23:36.613Z,3.15
2022-12-25T21:26:31.788Z,3.33
2022-12-25T21:29:00.848Z,2.85
2022-12-25T21:31:28.626Z,3.47
2022-12-25T21:33:57.700Z,2.95
2022-12-25T21:36:29.971Z,3.25
2022-12-25T21:39:02.529Z,3.15
2022-12-25T21:41:30.838Z,3.72
2022-12-25T21:43:57.816Z,3.33
2022-12-25T21:46:26.131Z,3.75
2022-12-25T21:48:53.538Z,3.60
2022-12-25T21:51:44.502Z,4.10
2022-12-25T21:54:12.491Z,3.35
2022-12-25T21:56:44.471Z,3.92
2022-12-25T21:59:15.490Z,3.72
2022-12-25T22:01:42.784Z,3.90
2022-12-25T22:04:11.164Z,3.72
2022-12-25T22:06:56.409Z,3.15
2022-12-25T22:09:23.229Z,4.72
2022-12-25T22:12:08.583Z,2.97
2022-12-25T22:14:54.360Z,3.92
2022-12-25T22:17:42.410Z,4.45
2022-12-25T22:20:15.762Z,4.00
2022-12-25T22:22:42.749Z,4.90
2022-12-25T22:25:10.863Z,4.20
2022-12-25T22:27:39.230Z,4.70
2022-12-25T22:30:07.974Z,4.43
2022-12-25T22:32:34.864Z,3.72
2022-12-25T22:35:01.829Z,4.60
2022-12-25T22:37:28.543Z,4.70
2022-12-25T22:39:55.247Z,4.70
2022-12-25T22:42:22.380Z,4.45
2022-12-25T22:44:49.220Z,4.57
2022-12-25T22:47:15.960Z,4.13
2022-12-25T22:49:43.044Z,3.75
2022-12-25T22:52:10.102Z,4.25
2022-12-25T22:54:37.243Z,3.85
2022-12-25T22:57:04.626Z,4.00
2022-12-25T22:59:32.927Z,4.07
2022-12-25T23:02:00.687Z,4.43
2022-12-25T23:04:28.532Z,3.95
2022-12-25T23:06:55.486Z,3.95
2022-12-25T23:09:29.468Z,4.18
2022-12-25T23:11:58.122Z,4.32
2022-12-25T23:14:41.753Z,4.22
2022-12-25T23:17:31.654Z,4.65
2022-12-25T23:20:18.725Z,4.22
2022-12-25T23:23:05.166Z,3.67
2022-12-25T23:25:52.464Z,4.95
2022-12-25T23:28:39.251Z,4.70
2022-12-25T23:31:06.161Z,4.00
2022-12-25T23:33:32.793Z,4.18
2022-12-25T23:38:26.319Z,3.75
2022-12-25T23:40:53.018Z,3.83
2022-12-25T23:43:19.661Z,3.95
2022-12-25T23:45:46.289Z,4.25
2022-12-25T23:50:39.780Z,4.43
2022-12-25T23:53:06.522Z,4.15
2022-12-25T23:55:33.733Z,4.35
2022-12-25T23:58:01.119Z,4.20
